KGLR/GLR METAR and TAF weather

Enter ICAO airport designator
Station Type Date Time Source
KGLR METAR 2020/04/03 21:53 UTC NOAA

KGLR 032153Z AUTO VRB04KT 10SM CLR 15/M06 A3002 RMK AO2 SLP177 T01501061


Station Type Date Time Source
KGLR Decoded METAR 2020/04/03 21:53 UTC NOAA

GAYLORD REGIONAL AIRPORT, MI, United States (KGLR) 45-01N 84-41W 407M
Apr 03, 2020 - 05:53 PM EDT / 2020.04.03 2153 UTC
Wind: Variable at 5 MPH (4 KT):0
Visibility: 10 mile(s):0
Sky conditions: clear
Temperature: 59.0 F (15.0 C)
Dew Point: 21.0 F (-6.1 C)
Relative Humidity: 22%
Pressure (altimeter): 30.02 in. Hg (1016 hPa)
ob: KGLR 032153Z AUTO VRB04KT 10SM CLR 15/M06 A3002 RMK AO2 SLP177 T01501061
cycle: 22

Station Type Date Time Source
KGLR TAF UTC NOAA

Error!

Example: see airport list